Decoded Metar for KLFI (HAMPTON in VA, USA) (IATA:LFI) | Meteo·Mobile Aviation Weather
aviador You're here:

KLFI Decoded Metar

HAMPTON in VA, USA
Report Time2019-02-21 23:56:00
UTC Time2019-02-22 00:33:00
Flight Rules vfr VFR
Wind050° at 04 kt
W.Decomp.*RWY 08: 3.8 kt HW 1.4 kt LCW
W.Rank050° ranks 7
Current wind is below 050° avg. (8.7)
Visibility9999 m
Phenomena:N/A
Clouds:Scattered 100 Hf
CeilingNone
Temp07°C (ISA -8)
Dew Point07°C (100% RH)
AAT4.9°C
QNH1020 hPa
Density Alt-1,053 ft
Elevation10 ft
Report Wrong Elevation
Raw Report
KLFI 212356Z 05004KT 10SM SCT100 07/07 A3013 RMK AO2A SLP210 60000
T00660065 10134 20066 52031 $=

Extra information for KLFI:More info

Metar Taf Metar & Taf Last 4 Metars F.Rules Stats Wind Profile Meteogram Temp Stats Airport Information Weather charts Add Link Nearby VenuesMetar ALERT Operation Metar Decoded Social comments

AIRNAV info for KLFI